createdAt,value
2022-10-13T00:01:50.397Z,78.30
2022-10-13T00:03:53.802Z,78.40
2022-10-13T00:05:57.954Z,78.50
2022-10-13T00:08:01.263Z,78.60
2022-10-13T00:10:04.246Z,78.70
2022-10-13T00:12:08.979Z,78.80
2022-10-13T00:14:11.833Z,79.00
2022-10-13T00:16:16.966Z,79.20
2022-10-13T00:18:19.794Z,79.20
2022-10-13T00:20:22.648Z,79.20
2022-10-13T00:22:28.822Z,79.30
2022-10-13T00:24:31.846Z,79.50
2022-10-13T00:26:34.667Z,79.50
2022-10-13T00:28:38.551Z,79.50
2022-10-13T00:32:58.097Z,79.50
2022-10-13T00:35:01.560Z,79.60
2022-10-13T00:37:06.969Z,79.90
2022-10-13T00:39:11.427Z,80.00
2022-10-13T00:41:14.986Z,79.80
2022-10-13T00:43:19.745Z,79.80
2022-10-13T00:45:25.465Z,79.70
2022-10-13T00:47:31.957Z,79.50
2022-10-13T00:49:34.920Z,79.80
2022-10-13T00:51:42.816Z,79.90
2022-10-13T00:53:48.425Z,80.00
2022-10-13T00:55:53.517Z,80.00
2022-10-13T00:58:02.678Z,80.00
2022-10-13T01:00:09.499Z,79.90
2022-10-13T01:02:12.553Z,80.00
2022-10-13T01:04:15.956Z,79.70
2022-10-13T01:06:23.695Z,80.40
2022-10-13T01:08:28.879Z,79.60
2022-10-13T01:10:43.348Z,79.50
2022-10-13T01:12:57.411Z,79.40
2022-10-13T01:15:08.054Z,79.20
2022-10-13T01:17:19.522Z,79.20
2022-10-13T01:19:56.319Z,79.20
2022-10-13T01:22:09.737Z,79.30
2022-10-13T01:24:37.745Z,79.40
2022-10-13T01:27:12.100Z,79.20
2022-10-13T01:29:33.492Z,79.30
2022-10-13T01:31:44.668Z,79.30
2022-10-13T01:33:56.198Z,79.10
2022-10-13T01:36:08.365Z,78.90
2022-10-13T01:38:22.820Z,78.90
2022-10-13T01:40:28.447Z,78.90
2022-10-13T01:42:37.754Z,78.80
2022-10-13T01:44:44.379Z,78.70
2022-10-13T01:46:51.793Z,78.60
2022-10-13T01:48:58.622Z,78.60
2022-10-13T01:51:02.096Z,78.40
2022-10-13T01:53:06.250Z,78.40
2022-10-13T01:55:11.719Z,78.30
2022-10-13T01:57:34.836Z,78.30
2022-10-13T01:59:38.590Z,78.30
2022-10-13T02:01:55.642Z,78.40
2022-10-13T02:04:08.797Z,78.50
2022-10-13T02:06:20.889Z,78.90
2022-10-13T02:08:31.101Z,78.90
2022-10-13T02:10:40.854Z,78.90
2022-10-13T02:12:50.613Z,79.10
2022-10-13T02:14:57.609Z,79.10
2022-10-13T02:17:05.580Z,79.20
2022-10-13T02:19:10.985Z,79.40
2022-10-13T02:21:13.886Z,79.40
2022-10-13T02:23:18.652Z,79.70
2022-10-13T02:25:21.969Z,79.90
2022-10-13T02:27:25.213Z,80.00
2022-10-13T02:29:28.129Z,80.00
2022-10-13T02:31:30.958Z,80.30
2022-10-13T02:33:35.386Z,80.50
2022-10-13T02:35:38.321Z,80.60
2022-10-13T02:37:41.159Z,80.40
2022-10-13T02:39:44.031Z,80.50
2022-10-13T02:41:46.925Z,80.60
2022-10-13T02:43:49.820Z,80.90
2022-10-13T02:45:52.673Z,80.80
2022-10-13T02:47:55.607Z,80.60
2022-10-13T02:50:00.154Z,80.70
2022-10-13T02:52:03.073Z,81.60
2022-10-13T02:54:05.977Z,80.70
2022-10-13T02:56:09.281Z,80.70
2022-10-13T02:58:12.194Z,80.50
2022-10-13T03:00:16.431Z,80.40
2022-10-13T03:02:20.116Z,80.50
2022-10-13T03:04:23.277Z,80.50
2022-10-13T03:06:27.564Z,80.50
2022-10-13T03:08:30.872Z,80.50
2022-10-13T03:10:33.771Z,80.50
2022-10-13T03:12:36.663Z,80.40
2022-10-13T03:14:39.643Z,80.70
2022-10-13T03:16:42.518Z,80.50
2022-10-13T03:18:45.550Z,80.40
2022-10-13T03:20:57.980Z,80.30
2022-10-13T03:23:02.148Z,80.20
2022-10-13T03:25:06.053Z,80.00
2022-10-13T03:27:09.133Z,80.10
2022-10-13T03:29:14.825Z,80.30
2022-10-13T03:31:18.829Z,80.40
2022-10-13T03:33:21.733Z,80.70
2022-10-13T03:35:24.753Z,80.70
2022-10-13T03:37:29.548Z,80.90
2022-10-13T03:39:34.048Z,80.80
2022-10-13T03:41:36.926Z,80.80
2022-10-13T03:43:40.300Z,80.90
2022-10-13T03:45:43.192Z,80.80
2022-10-13T03:47:46.046Z,81.60
2022-10-13T03:49:48.942Z,81.00
2022-10-13T03:51:51.890Z,81.00
2022-10-13T03:53:54.823Z,81.00
2022-10-13T03:55:59.077Z,81.00
2022-10-13T03:58:01.918Z,80.70
2022-10-13T04:00:09.609Z,81.00
2022-10-13T04:02:12.861Z,81.20
2022-10-13T04:04:15.760Z,81.20
2022-10-13T04:06:18.813Z,81.30
2022-10-13T04:08:21.732Z,81.40
2022-10-13T04:10:24.606Z,81.50
2022-10-13T04:12:28.906Z,81.50
2022-10-13T04:14:31.764Z,81.80
2022-10-13T04:16:35.020Z,82.00
2022-10-13T04:18:41.117Z,81.90
2022-10-13T04:20:47.284Z,82.00
2022-10-13T04:22:50.194Z,81.80
2022-10-13T04:24:53.042Z,81.60
2022-10-13T04:26:55.898Z,81.40
2022-10-13T04:29:01.131Z,81.10
2022-10-13T04:31:04.598Z,81.10
2022-10-13T04:33:07.601Z,81.10
2022-10-13T04:35:10.709Z,81.00
2022-10-13T04:37:13.769Z,81.00
2022-10-13T04:39:16.754Z,80.90
2022-10-13T04:41:20.310Z,81.00
2022-10-13T04:43:23.260Z,81.20
2022-10-13T04:45:28.282Z,81.30
2022-10-13T04:47:36.132Z,81.20
2022-10-13T04:49:40.011Z,81.50
2022-10-13T04:51:42.996Z,81.50
2022-10-13T04:53:46.217Z,81.70
2022-10-13T04:55:49.027Z,81.50
2022-10-13T04:57:51.971Z,81.20
2022-10-13T04:59:55.253Z,81.20
2022-10-13T05:01:59.507Z,81.20
2022-10-13T05:04:04.427Z,81.30
2022-10-13T05:06:07.914Z,81.30
2022-10-13T05:08:10.850Z,81.30
2022-10-13T05:10:13.865Z,81.20
2022-10-13T05:12:17.146Z,81.20
2022-10-13T05:14:20.164Z,80.80
2022-10-13T05:16:24.416Z,80.50
2022-10-13T05:18:29.832Z,80.70
2022-10-13T05:20:32.871Z,80.70
2022-10-13T05:22:35.976Z,80.30
2022-10-13T05:24:38.865Z,80.40
2022-10-13T05:26:41.828Z,80.40
2022-10-13T05:28:45.502Z,80.40
2022-10-13T05:30:48.436Z,80.40
2022-10-13T05:32:53.891Z,80.40
2022-10-13T05:34:58.342Z,80.30
2022-10-13T05:37:01.820Z,80.60
2022-10-13T05:39:07.411Z,80.60
2022-10-13T05:41:12.545Z,80.60
2022-10-13T05:43:15.820Z,80.60
2022-10-13T05:45:20.732Z,80.40
2022-10-13T05:47:28.097Z,81.00
2022-10-13T05:49:31.130Z,80.80
2022-10-13T05:51:38.901Z,80.60
2022-10-13T05:53:50.235Z,80.80
2022-10-13T05:56:05.910Z,81.00
2022-10-13T05:58:09.676Z,80.80
2022-10-13T06:00:15.166Z,81.20
2022-10-13T06:02:19.971Z,81.40
2022-10-13T06:04:45.285Z,81.50
2022-10-13T06:06:50.570Z,81.10
2022-10-13T06:08:54.094Z,81.70
2022-10-13T06:10:57.004Z,81.40
2022-10-13T06:12:59.930Z,81.50
2022-10-13T06:15:02.840Z,81.40
2022-10-13T06:17:05.958Z,81.50
2022-10-13T06:19:09.127Z,81.70
2022-10-13T06:21:14.895Z,81.50
2022-10-13T06:23:19.229Z,81.60
2022-10-13T06:25:22.539Z,81.40
2022-10-13T06:27:25.566Z,81.30
2022-10-13T06:29:28.603Z,81.50
2022-10-13T06:31:31.610Z,81.30
2022-10-13T06:33:35.203Z,81.50
2022-10-13T06:35:38.146Z,81.50
2022-10-13T06:37:41.279Z,81.40
2022-10-13T06:39:45.685Z,81.20
2022-10-13T06:41:48.611Z,81.20
2022-10-13T06:43:51.729Z,81.20
2022-10-13T06:45:54.763Z,81.10
2022-10-13T06:47:57.668Z,81.20
2022-10-13T06:50:00.588Z,81.30
2022-10-13T06:52:03.690Z,81.20
2022-10-13T06:54:06.730Z,81.20
2022-10-13T06:56:11.184Z,81.10
2022-10-13T06:58:14.143Z,81.50
2022-10-13T07:00:17.333Z,81.50
2022-10-13T07:02:20.658Z,81.60
2022-10-13T07:04:24.016Z,81.80
2022-10-13T07:06:27.042Z,81.80
2022-10-13T07:08:29.928Z,82.00
2022-10-13T07:10:33.005Z,82.10
2022-10-13T07:12:37.271Z,82.30
2022-10-13T07:14:43.055Z,82.70
2022-10-13T07:16:48.903Z,82.70
2022-10-13T07:18:51.881Z,83.10
2022-10-13T07:20:54.812Z,83.50
2022-10-13T07:22:57.713Z,83.70
2022-10-13T07:25:00.752Z,84.00
2022-10-13T07:27:07.610Z,84.20
2022-10-13T07:29:12.320Z,84.50
2022-10-13T07:31:17.531Z,84.90
2022-10-13T07:33:20.505Z,85.30
2022-10-13T07:35:30.323Z,85.30
2022-10-13T07:37:33.780Z,85.40
2022-10-13T07:39:36.727Z,85.80
2022-10-13T07:41:39.630Z,86.40
2022-10-13T07:43:43.036Z,86.80
2022-10-13T07:45:47.559Z,86.80
2022-10-13T07:47:50.432Z,86.90
2022-10-13T07:49:54.675Z,87.30
2022-10-13T07:51:57.568Z,87.20
2022-10-13T07:54:00.485Z,87.40
2022-10-13T07:56:04.525Z,87.70
2022-10-13T07:58:09.538Z,87.70
2022-10-13T08:00:13.571Z,87.30
2022-10-13T08:02:18.113Z,87.70
2022-10-13T08:04:21.252Z,87.60
2022-10-13T08:06:24.427Z,87.80
2022-10-13T08:08:27.433Z,87.90
2022-10-13T08:10:30.658Z,87.50
2022-10-13T08:12:33.578Z,88.00
2022-10-13T08:14:36.675Z,87.80
2022-10-13T08:16:41.847Z,87.70
2022-10-13T08:18:46.677Z,87.70
2022-10-13T08:20:59.256Z,87.60
2022-10-13T08:23:07.709Z,87.50
2022-10-13T08:25:11.545Z,87.60
2022-10-13T08:27:21.992Z,87.80
2022-10-13T08:29:25.237Z,87.90
2022-10-13T08:31:28.392Z,87.80
2022-10-13T08:33:31.399Z,87.50
2022-10-13T08:35:36.454Z,87.60
2022-10-13T08:37:39.381Z,87.50
2022-10-13T08:39:42.492Z,87.30
2022-10-13T08:41:45.589Z,87.00
2022-10-13T08:44:33.070Z,87.40
2022-10-13T08:46:19.076Z,87.80
2022-10-13T08:48:24.470Z,87.80
2022-10-13T08:50:30.412Z,87.40
2022-10-13T08:52:51.030Z,87.20
2022-10-13T08:54:56.116Z,87.10
2022-10-13T08:59:10.064Z,86.90
2022-10-13T09:01:15.943Z,86.70
2022-10-13T09:03:24.832Z,86.50
2022-10-13T09:05:37.914Z,86.50
2022-10-13T09:07:42.038Z,86.50
2022-10-13T09:09:46.458Z,86.10
2022-10-13T09:11:51.467Z,86.00
2022-10-13T09:13:59.533Z,86.20
2022-10-13T09:16:02.716Z,86.00
2022-10-13T09:18:13.853Z,85.80
2022-10-13T09:20:22.364Z,85.90
2022-10-13T09:22:59.558Z,86.00
2022-10-13T09:25:22.749Z,85.80
2022-10-13T09:27:25.710Z,85.90
2022-10-13T09:29:28.640Z,85.90
2022-10-13T09:31:33.153Z,86.00
2022-10-13T09:33:38.637Z,85.70
2022-10-13T09:35:43.548Z,85.40
2022-10-13T09:37:46.447Z,85.90
2022-10-13T09:40:03.071Z,85.50
2022-10-13T09:42:23.833Z,85.60
2022-10-13T09:44:30.828Z,84.90
2022-10-13T09:46:37.376Z,85.10
2022-10-13T09:48:42.548Z,85.10
2022-10-13T09:50:50.260Z,85.00
2022-10-13T09:52:54.046Z,85.30
2022-10-13T09:55:00.715Z,85.30
2022-10-13T09:57:08.724Z,85.30
2022-10-13T09:59:26.899Z,84.90
2022-10-13T10:01:36.332Z,83.20
2022-10-13T10:03:40.067Z,83.80
2022-10-13T10:05:50.701Z,84.20
2022-10-13T10:07:53.969Z,84.50
2022-10-13T10:10:01.710Z,83.90
2022-10-13T10:12:06.453Z,83.60
2022-10-13T10:14:22.081Z,84.10
2022-10-13T10:16:31.518Z,84.30
2022-10-13T10:18:40.570Z,84.30
2022-10-13T10:20:54.411Z,84.20
2022-10-13T10:23:03.405Z,83.90
2022-10-13T10:25:23.765Z,83.70
2022-10-13T10:27:32.800Z,83.50
2022-10-13T10:29:50.465Z,83.10
2022-10-13T10:32:29.056Z,82.10
2022-10-13T10:34:48.376Z,82.50
2022-10-13T10:36:58.503Z,81.50
2022-10-13T10:39:13.840Z,81.50
2022-10-13T10:41:39.144Z,81.40
2022-10-13T10:43:51.023Z,81.90
2022-10-13T10:45:57.807Z,81.90
2022-10-13T10:48:05.796Z,80.80
2022-10-13T10:50:14.736Z,80.60
2022-10-13T10:52:25.160Z,80.30
2022-10-13T10:54:39.020Z,80.40
2022-10-13T10:56:48.351Z,80.50
2022-10-13T10:59:00.106Z,80.10
2022-10-13T11:01:12.249Z,80.50
2022-10-13T11:03:26.314Z,80.80
2022-10-13T11:05:47.941Z,81.10
2022-10-13T11:07:59.761Z,80.00
2022-10-13T11:10:21.040Z,79.60
2022-10-13T11:12:24.580Z,80.20
2022-10-13T11:14:31.273Z,79.20
2022-10-13T11:16:40.888Z,80.20
2022-10-13T11:19:25.732Z,80.30
2022-10-13T11:22:07.269Z,80.20
2022-10-13T11:24:47.505Z,80.30
2022-10-13T11:26:52.202Z,79.90
2022-10-13T11:28:55.190Z,79.20
2022-10-13T11:31:18.901Z,80.00
2022-10-13T11:33:53.246Z,79.60
2022-10-13T11:35:56.174Z,79.10
2022-10-13T11:38:28.079Z,78.10
2022-10-13T11:40:35.142Z,78.30
2022-10-13T11:43:05.296Z,78.30
2022-10-13T11:45:23.995Z,79.10
2022-10-13T11:47:59.436Z,78.20
2022-10-13T11:50:13.980Z,78.60
2022-10-13T11:52:29.951Z,78.10
2022-10-13T11:54:36.512Z,78.10
2022-10-13T11:56:48.715Z,78.30
2022-10-13T11:58:51.893Z,78.30
2022-10-13T12:00:57.423Z,78.30
2022-10-13T12:03:00.309Z,78.50
2022-10-13T12:05:08.809Z,78.30
2022-10-13T12:07:14.402Z,78.00
2022-10-13T12:09:19.968Z,77.40
2022-10-13T12:11:27.001Z,78.00
2022-10-13T12:13:32.027Z,77.60
2022-10-13T12:15:37.370Z,77.80
2022-10-13T12:17:40.234Z,77.50
2022-10-13T12:19:43.159Z,77.90
2022-10-13T12:21:54.778Z,77.80
2022-10-13T12:24:08.551Z,77.90
2022-10-13T12:26:16.963Z,78.20
2022-10-13T12:28:20.683Z,78.00
2022-10-13T12:30:25.944Z,77.20
2022-10-13T12:32:30.826Z,77.70
2022-10-13T12:34:36.403Z,77.50
2022-10-13T12:36:39.493Z,77.40
2022-10-13T12:38:49.866Z,77.60
2022-10-13T12:40:54.455Z,78.00
2022-10-13T12:42:57.516Z,77.90
2022-10-13T12:45:02.387Z,77.90
2022-10-13T12:47:05.282Z,77.60
2022-10-13T12:49:12.265Z,75.60
2022-10-13T12:51:28.766Z,76.50
2022-10-13T12:53:32.710Z,76.90
2022-10-13T12:55:47.168Z,76.90
2022-10-13T12:57:51.845Z,76.90
2022-10-13T12:59:54.907Z,77.40
2022-10-13T13:02:01.333Z,77.40
2022-10-13T13:04:19.515Z,77.30
2022-10-13T13:06:26.645Z,76.70
2022-10-13T13:08:32.870Z,76.80
2022-10-13T13:10:37.165Z,76.30
2022-10-13T13:12:40.520Z,76.30
2022-10-13T13:14:44.629Z,76.00
2022-10-13T13:17:03.694Z,76.50
2022-10-13T13:19:06.655Z,76.70
2022-10-13T13:21:12.868Z,76.40
2022-10-13T13:23:18.904Z,76.50
2022-10-13T13:25:22.086Z,76.10
2022-10-13T13:27:28.130Z,75.70
2022-10-13T13:29:31.157Z,75.20
2022-10-13T13:31:34.167Z,75.30
2022-10-13T13:33:37.152Z,76.00
2022-10-13T13:35:40.201Z,75.50
2022-10-13T13:37:47.915Z,75.40
2022-10-13T13:39:51.410Z,75.60
2022-10-13T13:41:54.409Z,75.30
2022-10-13T13:43:59.956Z,74.80
2022-10-13T13:46:03.017Z,75.40
2022-10-13T13:48:06.432Z,75.10
2022-10-13T13:50:20.832Z,74.80
2022-10-13T13:52:25.310Z,74.70
2022-10-13T13:54:30.317Z,75.40
2022-10-13T13:56:35.759Z,75.20
2022-10-13T13:58:41.428Z,74.60
2022-10-13T14:00:45.695Z,75.20
2022-10-13T14:02:48.965Z,75.50
2022-10-13T14:04:53.390Z,75.30
2022-10-13T14:06:56.491Z,75.40
2022-10-13T14:08:59.519Z,75.70
2022-10-13T14:11:06.623Z,75.90
2022-10-13T14:13:09.852Z,75.90
2022-10-13T14:15:13.163Z,75.90
2022-10-13T14:17:17.471Z,76.00
2022-10-13T14:19:20.453Z,75.70
2022-10-13T14:21:23.431Z,75.50
2022-10-13T14:23:26.836Z,75.80
2022-10-13T14:25:29.721Z,75.80
2022-10-13T14:27:34.334Z,76.00
2022-10-13T14:29:38.058Z,76.10
2022-10-13T14:31:45.159Z,76.10
2022-10-13T14:33:53.994Z,76.30
2022-10-13T14:36:01.196Z,75.70
2022-10-13T14:38:04.152Z,75.90
2022-10-13T14:40:07.905Z,75.90
2022-10-13T14:42:10.836Z,76.10
2022-10-13T14:44:14.537Z,76.30
2022-10-13T14:46:17.455Z,76.40
2022-10-13T14:48:24.702Z,76.30
2022-10-13T14:50:29.372Z,76.10
2022-10-13T14:52:32.438Z,76.00
2022-10-13T14:54:35.456Z,76.20
2022-10-13T14:56:38.371Z,76.20
2022-10-13T14:58:42.582Z,76.20
2022-10-13T15:00:45.644Z,76.20
2022-10-13T15:02:48.529Z,76.50
2022-10-13T15:04:51.860Z,76.60
2022-10-13T15:06:56.174Z,76.70
2022-10-13T15:08:59.406Z,76.80
2022-10-13T15:11:03.895Z,77.00
2022-10-13T15:13:06.804Z,77.10
2022-10-13T15:15:10.814Z,77.20
2022-10-13T15:17:13.750Z,77.40
2022-10-13T15:19:16.880Z,77.30
2022-10-13T15:21:20.266Z,77.20
2022-10-13T15:23:24.958Z,77.20
2022-10-13T15:25:27.920Z,77.60
2022-10-13T15:27:30.970Z,77.60
2022-10-13T15:29:33.971Z,77.60
2022-10-13T15:31:37.732Z,78.60
2022-10-13T15:33:43.155Z,77.90
2022-10-13T15:35:49.325Z,78.20
2022-10-13T15:37:52.288Z,78.20
2022-10-13T15:39:57.680Z,78.10
2022-10-13T15:42:00.704Z,78.00
2022-10-13T15:44:03.654Z,78.20
2022-10-13T15:46:08.277Z,78.00
2022-10-13T15:48:13.694Z,78.40
2022-10-13T15:50:16.666Z,78.60
2022-10-13T15:52:20.029Z,78.60
2022-10-13T15:54:23.539Z,78.60
2022-10-13T15:56:27.732Z,78.70
2022-10-13T15:58:30.673Z,78.60
2022-10-13T16:00:33.963Z,78.60
2022-10-13T16:02:37.010Z,78.80
2022-10-13T16:04:41.483Z,78.80
2022-10-13T16:06:44.319Z,79.00
2022-10-13T16:08:47.209Z,79.00
2022-10-13T16:10:50.155Z,78.90
2022-10-13T16:12:54.866Z,79.00
2022-10-13T16:14:57.802Z,78.90
2022-10-13T16:17:00.749Z,78.80
2022-10-13T16:19:03.786Z,78.90
2022-10-13T16:21:14.507Z,79.00
2022-10-13T16:26:52.190Z,79.40
2022-10-13T16:28:59.778Z,79.60
2022-10-13T16:31:05.289Z,79.20
2022-10-13T16:33:13.694Z,79.30
2022-10-13T16:35:16.697Z,79.30
2022-10-13T16:37:20.427Z,79.40
2022-10-13T16:39:28.511Z,79.10
2022-10-13T16:41:31.449Z,79.20
2022-10-13T16:43:35.041Z,79.40
2022-10-13T16:45:58.743Z,79.60
2022-10-13T16:48:04.914Z,80.10
2022-10-13T16:50:09.868Z,79.30
2022-10-13T16:52:24.501Z,79.60
2022-10-13T16:54:27.533Z,79.40
2022-10-13T16:56:31.128Z,79.70
2022-10-13T16:58:34.438Z,79.60
2022-10-13T17:00:41.857Z,79.70
2022-10-13T17:02:44.889Z,79.70
2022-10-13T17:04:47.838Z,79.80
2022-10-13T17:06:54.332Z,79.80
2022-10-13T17:09:03.023Z,79.90
2022-10-13T17:11:07.347Z,80.00
2022-10-13T17:13:10.418Z,80.00
2022-10-13T17:15:13.588Z,80.00
2022-10-13T17:17:18.168Z,80.00
2022-10-13T17:19:24.841Z,80.80
2022-10-13T17:21:27.922Z,79.60
2022-10-13T17:23:32.910Z,80.00
2022-10-13T17:25:36.087Z,80.20
2022-10-13T17:27:39.258Z,80.10
2022-10-13T17:29:42.340Z,80.20
2022-10-13T17:31:45.268Z,80.20
2022-10-13T17:33:50.729Z,80.20
2022-10-13T17:35:54.040Z,80.50
2022-10-13T17:37:56.980Z,80.20
2022-10-13T17:39:59.957Z,80.40
2022-10-13T17:42:02.925Z,80.60
2022-10-13T17:44:06.214Z,80.70
2022-10-13T17:46:35.161Z,80.80
2022-10-13T17:48:34.423Z,81.00
2022-10-13T17:50:39.031Z,80.60
2022-10-13T17:52:41.923Z,80.80
2022-10-13T17:54:44.790Z,81.00
2022-10-13T17:56:48.542Z,80.90
2022-10-13T17:58:52.632Z,81.00
2022-10-13T18:01:12.348Z,81.20
2022-10-13T18:03:16.314Z,81.00
2022-10-13T18:05:19.721Z,81.20
2022-10-13T18:07:24.369Z,81.20
2022-10-13T18:09:27.251Z,81.40
2022-10-13T18:11:30.526Z,81.50
2022-10-13T18:13:33.966Z,81.30
2022-10-13T18:15:40.962Z,81.30
2022-10-13T18:17:47.935Z,81.40
2022-10-13T18:19:51.337Z,81.30
2022-10-13T18:21:54.342Z,81.30
2022-10-13T18:24:00.628Z,81.10
2022-10-13T18:26:04.841Z,81.50
2022-10-13T18:28:08.011Z,81.60
2022-10-13T18:30:12.456Z,81.40
2022-10-13T18:32:15.603Z,81.60
2022-10-13T18:34:19.162Z,81.30
2022-10-13T18:36:26.124Z,81.50
2022-10-13T18:38:29.343Z,81.70
2022-10-13T18:40:33.679Z,81.70
2022-10-13T18:42:36.635Z,81.70
2022-10-13T18:44:55.085Z,81.70
2022-10-13T18:46:58.342Z,81.20
2022-10-13T18:49:01.308Z,81.70
2022-10-13T18:51:05.450Z,81.70
2022-10-13T18:53:08.530Z,81.80
2022-10-13T18:55:11.703Z,81.70
2022-10-13T18:57:18.468Z,81.70
2022-10-13T18:59:21.890Z,81.80
2022-10-13T19:01:26.908Z,81.70
2022-10-13T19:03:29.873Z,82.10
2022-10-13T19:05:33.015Z,82.00
2022-10-13T19:07:39.055Z,82.10
2022-10-13T19:09:42.376Z,82.10
2022-10-13T19:11:45.577Z,82.40
2022-10-13T19:14:05.749Z,82.40
2022-10-13T19:16:09.223Z,82.70
2022-10-13T19:18:12.158Z,82.90
2022-10-13T19:20:15.616Z,82.80
2022-10-13T19:22:18.635Z,83.00
2022-10-13T19:24:21.779Z,83.00
2022-10-13T19:26:27.076Z,82.90
2022-10-13T19:28:30.152Z,83.50
2022-10-13T19:30:35.848Z,83.30
2022-10-13T19:32:39.992Z,83.50
2022-10-13T19:34:43.003Z,83.20
2022-10-13T19:36:47.765Z,83.60
2022-10-13T19:38:51.362Z,83.90
2022-10-13T19:40:54.915Z,83.90
2022-10-13T19:43:00.048Z,83.70
2022-10-13T19:45:03.696Z,83.80
2022-10-13T19:47:08.080Z,83.90
2022-10-13T19:49:12.029Z,83.80
2022-10-13T19:51:15.184Z,84.10
2022-10-13T19:53:18.761Z,84.00
2022-10-13T19:55:21.837Z,84.10
2022-10-13T19:57:25.169Z,84.10
2022-10-13T19:59:28.320Z,84.20
2022-10-13T20:01:31.460Z,84.30
2022-10-13T20:03:35.893Z,84.50
2022-10-13T20:05:39.211Z,84.60
2022-10-13T20:07:42.145Z,84.80
2022-10-13T20:09:45.754Z,85.00
2022-10-13T20:11:50.405Z,85.10
2022-10-13T20:14:00.234Z,85.30
2022-10-13T20:16:07.077Z,85.10
2022-10-13T20:18:12.926Z,85.10
2022-10-13T20:20:21.532Z,85.00
2022-10-13T20:22:25.527Z,85.10
2022-10-13T20:24:28.578Z,85.10
2022-10-13T20:26:31.587Z,85.10
2022-10-13T20:28:39.201Z,85.30
2022-10-13T20:30:44.921Z,85.40
2022-10-13T20:32:47.898Z,85.20
2022-10-13T20:34:51.057Z,85.30
2022-10-13T20:36:55.475Z,85.10
2022-10-13T20:38:58.452Z,85.30
2022-10-13T20:41:05.537Z,85.10
2022-10-13T20:43:08.533Z,85.30
2022-10-13T20:45:12.026Z,85.30
2022-10-13T20:47:15.202Z,85.10
2022-10-13T20:49:18.369Z,85.10
2022-10-13T20:51:23.379Z,85.30
2022-10-13T20:53:27.803Z,85.40
2022-10-13T20:55:31.312Z,85.30
2022-10-13T20:57:34.456Z,85.30
2022-10-13T20:59:39.306Z,85.30
2022-10-13T21:01:54.960Z,85.30
2022-10-13T21:03:58.368Z,85.30
2022-10-13T21:06:04.090Z,85.20
2022-10-13T21:08:07.231Z,85.30
2022-10-13T21:10:12.341Z,85.30
2022-10-13T21:12:15.651Z,85.20
2022-10-13T21:14:18.630Z,85.00
2022-10-13T21:16:25.986Z,85.00
2022-10-13T21:18:29.009Z,85.10
2022-10-13T21:20:32.260Z,85.00
2022-10-13T21:22:36.400Z,84.80
2022-10-13T21:24:39.524Z,84.80
2022-10-13T21:26:43.850Z,84.80
2022-10-13T21:28:46.996Z,85.50
2022-10-13T21:31:00.562Z,84.70
2022-10-13T21:33:03.547Z,84.90
2022-10-13T21:35:07.228Z,84.80
2022-10-13T21:37:10.276Z,84.90
2022-10-13T21:39:13.384Z,84.80
2022-10-13T21:41:17.045Z,84.90
2022-10-13T21:43:24.057Z,84.90
2022-10-13T21:45:27.086Z,84.90
2022-10-13T21:47:33.847Z,84.90
2022-10-13T21:49:36.893Z,85.00
2022-10-13T21:51:41.485Z,84.90
2022-10-13T21:53:50.832Z,85.00
2022-10-13T21:55:54.260Z,84.90
2022-10-13T21:58:01.680Z,85.10
2022-10-13T22:00:10.684Z,85.00
2022-10-13T22:02:13.826Z,85.10
2022-10-13T22:04:17.151Z,85.00
2022-10-13T22:06:20.388Z,84.90
2022-10-13T22:08:37.966Z,85.00
2022-10-13T22:10:41.860Z,85.10
2022-10-13T22:12:44.894Z,85.10
2022-10-13T22:14:48.338Z,85.10
2022-10-13T22:16:53.952Z,85.80
2022-10-13T22:18:58.496Z,85.30
2022-10-13T22:21:03.180Z,85.40
2022-10-13T22:23:06.095Z,85.40
2022-10-13T22:25:09.855Z,85.30
2022-10-13T22:27:12.928Z,85.40
2022-10-13T22:29:20.288Z,85.30
2022-10-13T22:31:23.332Z,85.50
2022-10-13T22:33:27.835Z,85.50
2022-10-13T22:35:30.894Z,85.60
2022-10-13T22:37:34.052Z,85.70
2022-10-13T22:39:37.046Z,85.60
2022-10-13T22:41:40.225Z,85.70
2022-10-13T22:43:44.454Z,85.70
2022-10-13T22:45:51.827Z,85.70
2022-10-13T22:47:54.842Z,85.80
2022-10-13T22:49:59.262Z,85.50
2022-10-13T22:52:02.312Z,85.60
2022-10-13T22:54:06.062Z,85.60
2022-10-13T22:56:10.827Z,85.80
2022-10-13T22:58:14.144Z,85.80
2022-10-13T23:00:17.790Z,85.60
2022-10-13T23:02:20.859Z,85.80
2022-10-13T23:04:23.865Z,85.80
2022-10-13T23:06:30.647Z,86.50
2022-10-13T23:08:34.037Z,85.90
2022-10-13T23:10:37.463Z,85.60
2022-10-13T23:12:40.477Z,85.50
2022-10-13T23:14:43.480Z,85.40
2022-10-13T23:16:46.599Z,85.40
2022-10-13T23:18:50.204Z,85.40
2022-10-13T23:20:56.702Z,85.60
2022-10-13T23:23:01.387Z,85.50
2022-10-13T23:25:04.528Z,85.40
2022-10-13T23:27:07.656Z,85.20
2022-10-13T23:29:10.938Z,85.50
2022-10-13T23:31:16.462Z,85.50
2022-10-13T23:33:19.464Z,85.70
2022-10-13T23:35:22.408Z,85.50
2022-10-13T23:37:26.813Z,85.50
2022-10-13T23:39:31.209Z,85.60
2022-10-13T23:41:35.608Z,85.30
2022-10-13T23:43:38.755Z,85.40
2022-10-13T23:45:41.758Z,85.50
2022-10-13T23:47:44.764Z,85.50
2022-10-13T23:49:47.704Z,85.50
2022-10-13T23:51:50.678Z,85.50
2022-10-13T23:53:54.339Z,85.40
2022-10-13T23:55:58.739Z,85.50
2022-10-13T23:58:01.724Z,85.20
